Thunder radar more information blitzortung!


Radar de pluja more information rain snow radar


Visita la nostra xarxa de llocs de meteo:

Template documentation
and downloads

And another site



No particular awareness of the weather is required.    There are no Weather-warnings

Pagina Historial Weather Underground text

Diari Resum Agost 4, 2017 Unitats:  Imperial    Mètric   Tant
« Previous Dia
SegĂźent Dia »
Diari Setmana Mensual Anual Personalitzada
  Maxima: Minima: Media:
Temperatura: 102 °F 72.1 °F 88.3 °F
Punt de rosada: 66.6 °F 54 °F 62.8 °F
Humitat: 71 % 28 % 45 %
Wind Speed: 11.5 mph 0 mph 3.7 mph
RĂ fegues de vent: 11.5 mph - -
Vent:- - South
Pression baro: 30 in 29.8 in -
Precipitacions: 0 in    
Historical Graphs
 
 
Dades de taula per Agost 4, 2017
Temps Temperatura Punt de rosada Pression baro Vent Wind Speed RĂ fegues de vent Humitat Rainfall Rate (Hourly)
00:02 84.6 °F 54 °F 29.9 in Calm     35 % 0 in
00:05 73.9 °F 61.3 °F 29.9 in Calm     65 % 0 in
00:07 84.2 °F 54.3 °F 29.9 in Calm     36 % 0 in
00:12 83.8 °F 54.9 °F 29.9 in Calm     37 % 0 in
00:15 73.9 °F 61 °F 29.9 in Calm     64 % 0 in
00:17 83.5 °F 54.5 °F 29.9 in Calm     37 % 0 in
00:25 73.8 °F 60.8 °F 29.9 in Calm     64 % 0 in
00:35 73.8 °F 60.8 °F 29.9 in Calm     64 % 0 in
00:45 73.6 °F 61.2 °F 29.9 in Calm     65 % 0 in
00:55 73.2 °F 60.6 °F 29.9 in NW 1 mph 1 mph 65 % 0 in
01:05 73 °F 61 °F 29.9 in Calm   1 mph 66 % 0 in
01:15 72.9 °F 60.8 °F 29.9 in Calm     66 % 0 in
01:25 72.7 °F 60.3 °F 29.9 in Calm   1 mph 65 % 0 in
01:35 72.3 °F 60.3 °F 29.9 in Calm     66 % 0 in
01:45 72.1 °F 60.3 °F 29.9 in WNW 1 mph 1 mph 66 % 0 in
01:55 72.1 °F 60.3 °F 29.9 in NNW 1 mph 2 mph 66 % 0 in
02:05 72.1 °F 60.3 °F 29.9 in North 1 mph 1 mph 66 % 0 in
02:15 72.1 °F 60.6 °F 29.9 in Calm   2 mph 67 % 0 in
02:25 72.5 °F 60.4 °F 29.9 in Calm   1 mph 66 % 0 in
02:35 73 °F 60.6 °F 29.9 in Calm   1 mph 65 % 0 in
02:45 73.8 °F 60.8 °F 29.9 in Calm   1 mph 64 % 0 in
02:55 73.6 °F 60.6 °F 29.9 in East 1 mph 1 mph 64 % 0 in
03:05 73 °F 60.1 °F 29.9 in SW 2 mph 2 mph 64 % 0 in
03:15 74.1 °F 61.2 °F 29.9 in Calm   2 mph 64 % 0 in
03:25 75.2 °F 61.3 °F 30 in SE 1 mph 2 mph 62 % 0 in
03:35 75.9 °F 61 °F 29.9 in East 1 mph 2 mph 60 % 0 in
03:45 77.2 °F 61.7 °F 29.9 in East 1 mph 2 mph 59 % 0 in
03:55 77.7 °F 61.3 °F 29.9 in ESE 1 mph 1 mph 57 % 0 in
04:05 79.2 °F 62.1 °F 29.9 in Calm   2 mph 56 % 0 in
04:15 80.2 °F 62.6 °F 29.9 in SE 1 mph 1 mph 55 % 0 in
04:25 80.8 °F 62.6 °F 29.9 in SE 1 mph 2 mph 54 % 0 in
04:35 82.2 °F 62.8 °F 29.9 in SSE 1 mph 2 mph 52 % 0 in
04:45 82.6 °F 63.1 °F 29.9 in SSW 1 mph 1 mph 52 % 0 in
04:55 82.9 °F 63.5 °F 29.9 in SW 1 mph 2 mph 52 % 0 in
05:05 85.1 °F 64.4 °F 29.9 in South 1 mph 2 mph 50 % 0 in
10:16 86.5 °F 64.6 °F 29.9 in ESE 2.6 mph 2.6 mph 48 % 0 in
10:21 87.3 °F 65.1 °F 29.9 in ESE 1.2 mph   48 % 0 in
10:26 87.1 °F 64.4 °F 29.9 in WNW 2.3 mph 2.3 mph 47 % 0 in
10:31 88.5 °F 65.1 °F 29.9 in SSE 3.1 mph 3.1 mph 46 % 0 in
10:36 89.2 °F 65.8 °F 30 in ESE 2.3 mph 2.3 mph 46 % 0 in
10:41 89.8 °F 65.7 °F 30 in ESE 2.3 mph 2.3 mph 45 % 0 in
10:46 90 °F 65.8 °F 30 in SSE 1.6 mph 1.6 mph 45 % 0 in
10:51 91 °F 66 °F 29.9 in SW 3.5 mph 3.5 mph 44 % 0 in
10:56 91.6 °F 65.8 °F 29.9 in SSW 3.8 mph 3.8 mph 43 % 0 in
11:01 91.9 °F 66.2 °F 29.9 in SW 2.3 mph 2.3 mph 43 % 0 in
11:06 93 °F 66.6 °F 29.9 in SSE 1.2 mph 1.2 mph 42 % 0 in
11:11 93 °F 66.6 °F 29.9 in ESE 3.5 mph 3.5 mph 42 % 0 in
11:16 92.7 °F 66.2 °F 29.9 in SSW 4.6 mph 4.6 mph 42 % 0 in
11:21 92.5 °F 65.5 °F 29.9 in SW 3.5 mph 3.5 mph 41 % 0 in
11:26 93.4 °F 65.5 °F 29.9 in SSW 4.6 mph 4.6 mph 40 % 0 in
11:27 93.6 °F 66.4 °F 29.9 in SW 3.6 mph 3.6 mph 41 % 0 in
11:32 93.2 °F 65.3 °F 29.9 in West 4.6 mph 4.6 mph 40 % 0 in
11:37 94.3 °F 65.5 °F 29.9 in ESE 1.2 mph 1.2 mph 39 % 0 in
11:42 94.6 °F 65.1 °F 29.9 in SW 5.8 mph 5.8 mph 38 % 0 in
11:47 95.2 °F 64 °F 29.9 in South 4.6 mph 4.6 mph 36 % 0 in
11:52 95 °F 63.9 °F 29.9 in SW 6.4 mph 6.4 mph 36 % 0 in
11:57 94.8 °F 62.1 °F 29.9 in South 5.8 mph 5.8 mph 34 % 0 in
12:02 96.4 °F 64.2 °F 29.9 in West 3.3 mph 3.3 mph 35 % 0 in
12:07 95.9 °F 63 °F 29.9 in WSW 4.6 mph 4.6 mph 34 % 0 in
12:12 95.7 °F 62.1 °F 29.9 in SSW 9.2 mph 9.2 mph 33 % 0 in
12:17 96.3 °F 63.3 °F 29.9 in ESE 3.5 mph 3.5 mph 34 % 0 in
12:22 97.9 °F 64.8 °F 29.9 in SSW 6.4 mph 6.4 mph 34 % 0 in
12:27 96.8 °F 63 °F 29.9 in SW 4.6 mph 4.6 mph 33 % 0 in
12:32 97.2 °F 63.3 °F 29.9 in SW 4.6 mph 4.6 mph 33 % 0 in
12:37 98.1 °F 63.1 °F 29.9 in WSW 3.5 mph 3.5 mph 32 % 0 in
12:42 98.8 °F 63.9 °F 29.9 in WSW 3.8 mph 3.8 mph 32 % 0 in
12:47 98.1 °F 63.1 °F 29.9 in South 3.5 mph 3.5 mph 32 % 0 in
12:52 98.4 °F 63.5 °F 29.9 in WNW 5.8 mph 5.8 mph 32 % 0 in
12:57 99.7 °F 64.6 °F 29.9 in SSW 2.6 mph 2.6 mph 32 % 0 in
13:02 98.4 °F 62.6 °F 29.9 in SW 5.8 mph 5.8 mph 31 % 0 in
13:07 98.4 °F 62.6 °F 29.9 in South 3.5 mph 3.5 mph 31 % 0 in
13:12 99.5 °F 62.6 °F 29.9 in SW 6.9 mph 6.9 mph 30 % 0 in
13:17 99.1 °F 62.2 °F 29.9 in SSW 8.1 mph 8.1 mph 30 % 0 in
13:22 99.5 °F 62.6 °F 29.9 in SW 6.9 mph 6.9 mph 30 % 0 in
13:27 99 °F 62.1 °F 29.9 in South 3.5 mph 3.5 mph 30 % 0 in
13:32 100.2 °F 63.1 °F 29.9 in SSW 6.9 mph 6.9 mph 30 % 0 in
13:37 99.9 °F 63 °F 29.9 in WSW 4.6 mph 4.6 mph 30 % 0 in
13:42 100.6 °F 63.5 °F 29.9 in WSW 3.5 mph 3.5 mph 30 % 0 in
13:47 100.8 °F 63.7 °F 29.8 in West 7.4 mph 7.4 mph 30 % 0 in
13:52 99.7 °F 61.9 °F 29.8 in WSW 5.8 mph 5.8 mph 29 % 0 in
13:57 100.9 °F 62.8 °F 29.8 in SE 5.8 mph 5.8 mph 29 % 0 in
14:02 100.9 °F 62.8 °F 29.9 in SW 6.9 mph 6.9 mph 29 % 0 in
14:07 100.4 °F 62.4 °F 29.9 in SW 8.1 mph 8.1 mph 29 % 0 in
14:12 100.4 °F 62.4 °F 29.9 in SW 5.8 mph 5.8 mph 29 % 0 in
14:17 100.6 °F 62.4 °F 29.9 in WSW 4.7 mph 4.7 mph 29 % 0 in
14:22 100 °F 62.1 °F 29.9 in South 5.8 mph 5.8 mph 29 % 0 in
14:27 100.9 °F 62.8 °F 29.9 in SW 4.6 mph 4.6 mph 29 % 0 in
14:32 101.1 °F 63 °F 29.9 in SSW 5.8 mph 5.8 mph 29 % 0 in
14:37 100.4 °F 61.3 °F 29.9 in South 3.5 mph 3.5 mph 28 % 0 in
14:42 101.3 °F 63.1 °F 29.9 in SW 5.8 mph 5.8 mph 29 % 0 in
14:47 102 °F 63.9 °F 29.9 in West 9.2 mph 9.2 mph 29 % 0 in
14:48 102 °F 63.9 °F 29.9 in West 9.2 mph 9.2 mph 29 % 0 in
14:53 101.3 °F 62.2 °F 29.9 in SSW 6.9 mph 6.9 mph 28 % 0 in
14:58 100.4 °F 61.3 °F 29.9 in SW 8.1 mph 8.1 mph 28 % 0 in
15:03 100.8 °F 61.7 °F 29.9 in SE 5.8 mph 5.8 mph 28 % 0 in
15:08 100 °F 61.2 °F 29.9 in West 11.5 mph 11.5 mph 28 % 0 in
15:13 99.9 °F 61 °F 29.9 in SW 10.4 mph 10.4 mph 28 % 0 in
15:18 101.1 °F 62.1 °F 29.8 in SSW 4.6 mph 4.6 mph 28 % 0 in
15:23 101.3 °F 62.2 °F 29.8 in SSE 5.8 mph 5.8 mph 28 % 0 in
15:28 100.9 °F 61.9 °F 29.8 in SSW 9.2 mph 9.2 mph 28 % 0 in
15:33 100.9 °F 61.9 °F 29.8 in SW 6.9 mph 6.9 mph 28 % 0 in
15:38 100 °F 61.2 °F 29.8 in SW 9.2 mph 9.2 mph 28 % 0 in
15:43 100.4 °F 61.3 °F 29.8 in SW 5.8 mph 6.2 mph 28 % 0 in
15:48 99.7 °F 60.8 °F 29.8 in West 10.4 mph 10.4 mph 28 % 0 in
15:53 100 °F 61.2 °F 29.8 in SW 5.8 mph 5.8 mph 28 % 0 in
15:58 99.7 °F 60.8 °F 29.8 in SW 10.4 mph 10.4 mph 28 % 0 in
16:03 100.4 °F 61.3 °F 29.8 in SW 8.1 mph 8.1 mph 28 % 0 in
16:08 100.6 °F 61.5 °F 29.8 in SW 8.1 mph 8.1 mph 28 % 0 in
16:13 100.8 °F 61.7 °F 29.8 in WSW 8.1 mph 8.1 mph 28 % 0 in
16:18 100.2 °F 61.2 °F 29.8 in SW 10.4 mph 10.4 mph 28 % 0 in
16:23 100.6 °F 61.5 °F 29.8 in West 6.9 mph 6.9 mph 28 % 0 in
16:28 99.7 °F 60.8 °F 29.8 in SW 9.2 mph 9.2 mph 28 % 0 in
16:33 100.4 °F 61.3 °F 29.8 in SSE 5.8 mph 5.8 mph 28 % 0 in
16:38 100.9 °F 61.9 °F 29.8 in South 5.8 mph 5.8 mph 28 % 0 in
16:43 100.9 °F 61.9 °F 29.8 in SSW 6.2 mph 6.2 mph 28 % 0 in
16:48 100.6 °F 61.5 °F 29.8 in SSW 6 mph 6 mph 28 % 0 in
16:53 100.4 °F 61.3 °F 29.8 in WSW 4.6 mph 4.6 mph 28 % 0 in
16:58 100.4 °F 61.3 °F 29.8 in WSW 6.9 mph 6.9 mph 28 % 0 in
17:00 100.6 °F 61.5 °F 29.8 in SW 8.1 mph 8.1 mph 28 % 0 in
17:05 100.6 °F 61.5 °F 29.8 in West 5.8 mph 5.8 mph 28 % 0 in
17:10 99.5 °F 60.6 °F 29.8 in SW 5.8 mph 5.8 mph 28 % 0 in
17:15 99.7 °F 60.8 °F 29.8 in South 4.6 mph 4.6 mph 28 % 0 in
17:20 99.9 °F 61 °F 29.8 in ESE 3.8 mph 3.8 mph 28 % 0 in
17:25 98.2 °F 59.5 °F 29.8 in WSW 3.5 mph 3.5 mph 28 % 0 in
17:30 99 °F 60.3 °F 29.8 in SSW 8.1 mph 8.1 mph 28 % 0 in
17:35 99 °F 60.3 °F 29.8 in North 3.8 mph 3.8 mph 28 % 0 in
17:40 96.8 °F 59.4 °F 29.8 in North 3.5 mph 3.5 mph 29 % 0 in
17:45 96.8 °F 59.4 °F 29.8 in SSE 5.8 mph 5.8 mph 29 % 0 in
17:50 96.1 °F 58.6 °F 29.8 in West 4.9 mph 4.9 mph 29 % 0 in
17:55 96.6 °F 59.2 °F 29.8 in NE 2.3 mph 2.3 mph 29 % 0 in
18:00 96.4 °F 59 °F 29.8 in West 2.3 mph 2.3 mph 29 % 0 in
18:05 97 °F 59.5 °F 29.8 in ENE 3.1 mph 3.1 mph 29 % 0 in
18:10 97.2 °F 59.5 °F 29.8 in ENE 3.5 mph 3.5 mph 29 % 0 in
18:15 97.7 °F 60.1 °F 29.8 in SW 4.6 mph 4.6 mph 29 % 0 in
18:20 97.7 °F 60.1 °F 29.8 in SSW 2.3 mph 2.3 mph 29 % 0 in
18:25 95.7 °F 58.5 °F 29.8 in South 2.4 mph 2.4 mph 29 % 0 in
18:30 96.4 °F 59 °F 29.8 in SW 5.8 mph 5.8 mph 29 % 0 in
18:35 96.1 °F 58.6 °F 29.8 in North 8.1 mph 8.1 mph 29 % 0 in
18:40 94.5 °F 59.2 °F 29.8 in ENE 5.8 mph 5.8 mph 31 % 0 in
18:41 94.5 °F 59.2 °F 29.8 in East 3.5 mph 3.5 mph 31 % 0 in
18:46 93 °F 59.7 °F 29.8 in NE 3.5 mph 3.5 mph 33 % 0 in
18:51 92.7 °F 59.4 °F 29.8 in SSE 2.9 mph 2.9 mph 33 % 0 in
18:56 92.5 °F 59.2 °F 29.8 in ESE 3.5 mph 3.5 mph 33 % 0 in
19:01 91.8 °F 59.4 °F 29.9 in East 7.1 mph 7.1 mph 34 % 0 in
19:06 91.2 °F 60.4 °F 29.9 in ESE 5.8 mph 5.8 mph 36 % 0 in
19:11 90.9 °F 60.3 °F 29.9 in SE 6.9 mph 6.9 mph 36 % 0 in
19:16 90.5 °F 60.6 °F 29.9 in ENE 2.3 mph 2.3 mph 37 % 0 in
19:21 90.5 °F 60.6 °F 29.9 in East 2.3 mph 2.3 mph 37 % 0 in
19:25 79.2 °F 65.5 °F 29.9 in Calm   1 mph 63 % 0 in
19:26 90.5 °F 60.6 °F 29.9 in WSW 4.6 mph 4.6 mph 37 % 0 in
19:31 91 °F 61.2 °F 29.9 in South 3.3 mph 3.3 mph 37 % 0 in
19:35 79 °F 65.3 °F 29.9 in Calm     63 % 0 in
19:36 91.2 °F 61.3 °F 29.9 in SW 3.5 mph 3.5 mph 37 % 0 in
19:41 91.2 °F 61.3 °F 29.9 in SW 2.3 mph 2.3 mph 37 % 0 in
19:45 78.8 °F 65.7 °F 29.9 in West 1 mph 2 mph 64 % 0 in
19:46 91.6 °F 61 °F 29.9 in WSW 4.6 mph 4.6 mph 36 % 0 in
19:51 91.2 °F 61.3 °F 29.9 in NE 4.6 mph 4.6 mph 37 % 0 in
19:55 78.4 °F 64.8 °F 29.9 in Calm   1 mph 63 % 0 in
19:56 90 °F 61 °F 29.9 in South 3.5 mph 3.5 mph 38 % 0 in
20:01 88.7 °F 60.6 °F 29.9 in ENE 3.5 mph 3.5 mph 39 % 0 in
20:05 78.1 °F 64.6 °F 29.9 in Calm   2 mph 63 % 0 in
20:06 88 °F 60.6 °F 29.9 in NE 2.6 mph 2.6 mph 40 % 0 in
20:11 87.4 °F 61.5 °F 29.9 in ENE 4.6 mph 4.6 mph 42 % 0 in
20:15 77.7 °F 64 °F 29.9 in SW 1 mph 2 mph 63 % 0 in
20:16 86.7 °F 61.5 °F 29.9 in ENE 5.8 mph 5.8 mph 43 % 0 in
20:21 86.2 °F 61.7 °F 29.9 in NE 6.9 mph 6.9 mph 44 % 0 in
20:25 77.5 °F 64.4 °F 29.9 in Calm   1 mph 64 % 0 in
20:26 86 °F 62.2 °F 29.9 in ESE 5.8 mph 5.8 mph 45 % 0 in
20:31 85.6 °F 62.4 °F 29.8 in ESE 4.6 mph 4.6 mph 46 % 0 in
20:35 77.4 °F 64.8 °F 30 in WSW 1 mph 2 mph 65 % 0 in
20:36 85.5 °F 62.2 °F 29.8 in East 5.8 mph 5.8 mph 46 % 0 in
20:41 85.3 °F 62.8 °F 29.8 in East 5.8 mph 5.8 mph 47 % 0 in
20:45 77.2 °F 64 °F 30 in WSW 2 mph 2 mph 64 % 0 in
20:46 84.9 °F 63 °F 29.9 in NNE 5.8 mph 5.8 mph 48 % 0 in
20:51 84.6 °F 62.8 °F 29.9 in ENE 6.9 mph 6.9 mph 48 % 0 in
20:55 76.8 °F 64.6 °F 29.9 in SW 1 mph 2 mph 66 % 0 in
20:56 84.4 °F 63.1 °F 29.9 in ESE 5.8 mph 5.8 mph 49 % 0 in
21:01 84 °F 63.9 °F 29.9 in ENE 4.6 mph 4.6 mph 51 % 0 in
21:05 76.6 °F 64.4 °F 29.9 in SW 1 mph 2 mph 66 % 0 in
21:06 83.8 °F 63.9 °F 29.9 in ENE 5.8 mph 5.8 mph 51 % 0 in
21:11 83.5 °F 64 °F 29.9 in NE 5.8 mph 5.8 mph 52 % 0 in
21:15 76.6 °F 64.9 °F 29.9 in WSW 1 mph 1 mph 67 % 0 in
21:21 83.1 °F 64.2 °F 29.9 in ESE 4.6 mph 4.6 mph 53 % 0 in
21:25 76.6 °F 64.9 °F 29.9 in SW 1 mph 2 mph 67 % 0 in
21:26 82.9 °F 65.1 °F 29.9 in ENE 4.7 mph 4.7 mph 55 % 0 in
21:31 82.6 °F 64.8 °F 29.9 in East 5.8 mph 5.8 mph 55 % 0 in
21:35 76.5 °F 65.1 °F 29.9 in WSW 1 mph 2 mph 68 % 0 in
21:36 82.6 °F 65.3 °F 29.9 in NE 4.6 mph 4.6 mph 56 % 0 in
21:41 82.4 °F 65.1 °F 29.9 in East 5.8 mph 5.8 mph 56 % 0 in
21:45 76.1 °F 64.8 °F 29.9 in Calm     68 % 0 in
21:46 82.2 °F 65.5 °F 29.9 in ESE 5.8 mph 5.8 mph 57 % 0 in
21:51 82 °F 65.3 °F 29.9 in ENE 4.6 mph 4.6 mph 57 % 0 in
21:55 76.1 °F 64.8 °F 29.9 in Calm   1 mph 68 % 0 in
21:56 81.9 °F 65.7 °F 29.9 in East 5.8 mph 5.8 mph 58 % 0 in
22:01 81.9 °F 65.7 °F 29.9 in ESE 5.6 mph 5.6 mph 58 % 0 in
22:05 75.9 °F 64.9 °F 29.9 in Calm     69 % 0 in
22:06 81.7 °F 66 °F 29.9 in East 4.6 mph 4.6 mph 59 % 0 in
22:11 81.5 °F 65.3 °F 29.9 in East 3.5 mph 3.5 mph 58 % 0 in
22:15 75.7 °F 64.4 °F 29.9 in Calm   2 mph 68 % 0 in
22:16 81.5 °F 66.4 °F 29.9 in ESE 5.8 mph 5.8 mph 60 % 0 in
22:21 81.3 °F 66 °F 29.9 in East 3.6 mph 3.6 mph 60 % 0 in
22:25 75.7 °F 64.8 °F 29.9 in Calm   1 mph 69 % 0 in
22:26 81.3 °F 66 °F 29.9 in ENE 4 mph 4 mph 60 % 0 in
22:31 81.1 °F 65.8 °F 29.9 in ENE 3.8 mph 3.8 mph 60 % 0 in
22:35 75.7 °F 64.8 °F 29.9 in Calm     69 % 0 in
22:36 81.1 °F 65.8 °F 29.9 in East 3.6 mph 3.6 mph 60 % 0 in
22:41 81 °F 65.8 °F 29.9 in ENE 3.5 mph 3.5 mph 60 % 0 in
22:45 75.6 °F 64.8 °F 29.9 in Calm     69 % 0 in
22:50 75.7 °F 65.3 °F 29.9 in Calm     70 % 0 in
22:51 80.8 °F 66 °F 29.9 in East 2.4 mph 2.4 mph 61 % 0 in
22:56 80.8 °F 66 °F 29.9 in East 3.5 mph 3.5 mph 61 % 0 in
23:00 75.9 °F 65.5 °F 29.9 in Calm     70 % 0 in
23:01 80.8 °F 66 °F 29.9 in East 2.3 mph 2.3 mph 61 % 0 in
23:06 80.6 °F 65.8 °F 29.9 in ESE 1.2 mph   61 % 0 in
23:10 75.4 °F 64.6 °F 29.9 in Calm   1 mph 69 % 0 in
23:11 80.6 °F 65.5 °F 29.9 in WSW 3.3 mph 3.3 mph 60 % 0 in
23:16 80.4 °F 65.7 °F 29.9 in WSW 2.3 mph 2.3 mph 61 % 0 in
23:20 74.7 °F 64.6 °F 29.9 in SW 1 mph 2 mph 71 % 0 in
23:21 80.2 °F 66 °F 29.9 in SW 1.2 mph   62 % 0 in
23:22 80.2 °F 66 °F 29.9 in SW 1.4 mph 1.4 mph 62 % 0 in
23:27 80.1 °F 65.8 °F 29.9 in WSW 1.2 mph 1.2 mph 62 % 0 in
23:30 74.7 °F 64.6 °F 29.9 in Calm   1 mph 71 % 0 in
23:32 80.1 °F 65.8 °F 29.9 in SW 1.2 mph 1.2 mph 62 % 0 in
23:37 79.9 °F 65.7 °F 29.9 in SW 1.2 mph 1.6 mph 62 % 0 in
23:40 74.8 °F 64.8 °F 29.9 in WSW 1 mph 2 mph 71 % 0 in
23:42 79.7 °F 65.5 °F 29.9 in WSW 1.2 mph   62 % 0 in
23:47 79.7 °F 66 °F 29.9 in SW 2.2 mph 2.2 mph 63 % 0 in
23:50 74.8 °F 64.8 °F 29.9 in Calm   2 mph 71 % 0 in
23:52 79.5 °F 65.8 °F 29.9 in Calm     63 % 0 in
23:57 79.5 °F 65.8 °F 29.9 in SW 2.3 mph 2.3 mph 63 % 0 in
Meteo Sesrovires
Elogis d' Weather Underground - 3.75 mb

Guio original per  Jim McMurry - jmcmurry@mwt.net Adaptat per a la plantilla per  Wim van der Kuil - Leuven-Template.eu

Trobareu la nostra informacio del temps tambe a:

Weather Underground

AWEKAS